Time;durP1;ratioP1;P1;durP2;ratioP2;P2;SDS_P1;SDS_P2;PMS_P1;PMS_P2;Temp;Humidity;BMP_temperature;BMP_pressure;BME280_temperature;BME280_humidity;BME280_pressure;Samples;Min_cycle;Max_cycle;Signal;HPM_P1;HPM_P2
2023/01/28 00:01:45;;;;;;;0.70;0.70;;;3.00;99.90;;;;;;5016796;28;20525;-86
2023/01/28 00:04:11;;;;;;;0.77;0.77;;;1.70;99.90;;;;;;5047449;28;20040;-83
2023/01/28 00:06:37;;;;;;;0.70;0.70;;;1.70;99.90;;;;;;5019234;28;20086;-83
2023/01/28 00:09:02;;;;;;;0.70;0.70;;;2.50;99.90;;;;;;5020345;28;20133;-83
2023/01/28 00:11:28;;;;;;;0.70;0.70;;;1.70;99.90;;;;;;5035639;28;20126;-84
2023/01/28 00:13:55;;;;;;;0.70;0.70;;;1.70;99.90;;;;;;5044331;28;20136;-85
2023/01/28 00:16:21;;;;;;;0.60;0.60;;;1.70;99.90;;;;;;5027378;28;20040;-84
2023/01/28 00:18:47;;;;;;;1.58;1.48;;;3.10;99.90;;;;;;5033005;28;20110;-84
2023/01/28 00:21:14;;;;;;;0.60;0.60;;;2.80;99.90;;;;;;5044370;28;20032;-85
2023/01/28 00:23:41;;;;;;;0.60;0.60;;;2.50;99.90;;;;;;5045710;28;20037;-85
2023/01/28 00:26:11;;;;;;;0.60;0.60;;;3.20;99.90;;;;;;5054496;28;20047;-85
2023/01/28 00:28:38;;;;;;;0.60;0.60;;;2.20;99.90;;;;;;5045200;28;20049;-85
2023/01/28 00:31:31;;;;;;;0.60;0.60;;;1.70;99.90;;;;;;5035463;28;20049;-85
2023/01/28 00:33:56;;;;;;;0.60;0.60;;;1.70;99.90;;;;;;5039485;28;20053;-84
2023/01/28 00:36:24;;;;;;;0.70;0.70;;;2.20;99.90;;;;;;5029054;28;20037;-85
2023/01/28 00:38:56;;;;;;;0.57;0.57;;;2.40;99.90;;;;;;5036392;28;20045;-85
2023/01/28 00:41:24;;;;;;;0.70;0.70;;;1.60;99.90;;;;;;5040721;28;20069;-84
2023/01/28 00:43:51;;;;;;;0.68;0.68;;;3.20;99.90;;;;;;5021602;28;20120;-84
2023/01/28 00:46:17;;;;;;;0.60;0.60;;;2.30;99.90;;;;;;5039534;28;20087;-84
2023/01/28 00:48:43;;;;;;;;;;;1.70;99.90;;;;;;5055608;28;20037;-84
2023/01/28 00:51:10;;;;;;;0.68;0.68;;;1.70;99.90;;;;;;5050500;28;19917;-83
2023/01/28 00:53:37;;;;;;;0.65;0.65;;;3.10;99.90;;;;;;5045341;28;20712;-84
2023/01/28 00:56:04;;;;;;;0.68;0.68;;;1.70;99.90;;;;;;5034242;28;20037;-84
2023/01/28 00:58:30;;;;;;;0.60;0.60;;;1.70;99.90;;;;;;5011508;28;20391;-84
2023/01/28 01:00:56;;;;;;;0.60;0.60;;;3.00;99.90;;;;;;5035687;28;20037;-83
2023/01/28 01:03:21;;;;;;;0.70;0.70;;;2.80;99.90;;;;;;5015502;28;20093;-84
2023/01/28 01:05:47;;;;;;;0.60;0.60;;;3.00;99.90;;;;;;5032164;28;20053;-83
2023/01/28 01:08:13;;;;;;;0.73;0.73;;;1.80;99.90;;;;;;5041215;28;20037;-84
2023/01/28 01:10:39;;;;;;;0.60;0.60;;;2.30;99.90;;;;;;5030297;28;20476;-86
2023/01/28 01:13:06;;;;;;;0.70;0.70;;;1.70;99.90;;;;;;5032953;28;20044;-84
2023/01/28 01:15:32;;;;;;;0.70;0.70;;;2.90;99.90;;;;;;5051513;28;20064;-84
2023/01/28 01:17:58;;;;;;;0.60;0.60;;;2.50;99.90;;;;;;5031093;28;20037;-84
2023/01/28 01:20:27;;;;;;;0.70;0.70;;;3.00;99.90;;;;;;5054951;28;20048;-84
2023/01/28 01:22:53;;;;;;;0.70;0.70;;;1.70;99.90;;;;;;5031808;28;20085;-83
2023/01/28 01:25:19;;;;;;;;;;;3.00;99.90;;;;;;5030902;28;20033;-83
2023/01/28 01:27:47;;;;;;;0.60;0.60;;;1.90;99.90;;;;;;5055241;28;19916;-82
2023/01/28 01:30:14;;;;;;;0.50;0.50;;;3.10;99.90;;;;;;5053945;28;20116;-84
2023/01/28 01:32:40;;;;;;;0.60;0.60;;;1.70;99.90;;;;;;5002183;28;20122;-85
2023/01/28 01:35:08;;;;;;;1.48;1.40;;;1.60;99.90;;;;;;5040743;28;20487;-83
2023/01/28 01:37:35;;;;;;;0.70;0.70;;;1.70;99.90;;;;;;5048028;28;20075;-84
2023/01/28 01:40:03;;;;;;;0.55;0.55;;;1.70;99.90;;;;;;5043591;28;20091;-85
2023/01/28 01:42:30;;;;;;;0.60;0.60;;;3.30;99.90;;;;;;5031176;28;20541;-84
2023/01/28 01:45:05;;;;;;;0.80;0.80;;;3.00;99.90;;;;;;5022726;28;20056;-84
2023/01/28 01:47:59;;;;;;;0.50;0.50;;;1.70;99.90;;;;;;5025743;28;20038;-85
2023/01/28 01:50:36;;;;;;;0.70;0.70;;;1.70;99.90;;;;;;5041334;28;20080;-84
2023/01/28 01:53:10;;;;;;;0.70;0.70;;;1.70;99.90;;;;;;5024610;28;20099;-85
2023/01/28 01:55:40;;;;;;;0.60;0.60;;;1.70;99.90;;;;;;5031925;28;20444;-83
2023/01/28 01:58:12;;;;;;;0.70;0.70;;;3.00;99.90;;;;;;5041304;28;20032;-84
2023/01/28 02:00:40;;;;;;;0.70;0.70;;;2.00;99.90;;;;;;5040754;28;20501;-83
2023/01/28 02:03:06;;;;;;;0.80;0.80;;;2.20;99.90;;;;;;5030182;28;20446;-84
2023/01/28 02:05:31;;;;;;;0.65;0.65;;;2.60;99.90;;;;;;5012214;28;20048;-82
2023/01/28 02:08:19;;;;;;;0.70;0.70;;;2.10;99.90;;;;;;5039488;28;20076;-83
2023/01/28 02:10:45;;;;;;;0.70;0.70;;;1.60;99.90;;;;;;5023875;28;20041;-82
2023/01/28 02:13:12;;;;;;;0.70;0.70;;;1.90;99.90;;;;;;5030247;28;20124;-84
2023/01/28 02:15:38;;;;;;;0.63;0.63;;;1.60;99.90;;;;;;5016512;28;20040;-84
2023/01/28 02:18:03;;;;;;;0.68;0.68;;;2.20;99.90;;;;;;5025449;28;20043;-84
2023/01/28 02:20:55;;;;;;;0.75;0.75;;;1.60;99.90;;;;;;5042616;28;20068;-83
2023/01/28 02:23:45;;;;;;;0.90;0.90;;;1.60;99.90;;;;;;5033320;28;20056;-83
2023/01/28 02:26:32;;;;;;;0.60;0.60;;;1.60;99.90;;;;;;5044711;28;20064;-82
2023/01/28 02:29:01;;;;;;;;;;;1.60;99.90;;;;;;5030762;28;20041;-83
2023/01/28 02:31:30;;;;;;;0.65;0.65;;;1.60;99.90;;;;;;5036028;28;19928;-83
2023/01/28 02:34:20;;;;;;;0.60;0.60;;;1.60;99.90;;;;;;5043709;28;20110;-87
2023/01/28 02:37:00;;;;;;;0.75;0.75;;;1.60;99.90;;;;;;5037762;28;20580;-86
2023/01/28 02:39:30;;;;;;;0.63;0.63;;;1.60;99.90;;;;;;5032095;28;20045;-86
2023/01/28 02:42:03;;;;;;;0.60;0.60;;;1.70;99.90;;;;;;5047817;28;20111;-84
2023/01/28 02:44:29;;;;;;;0.75;0.75;;;2.80;99.90;;;;;;5043951;28;21550;-85
2023/01/28 02:50:07;;;;;;;0.63;0.63;;;1.50;99.90;;;;;;5025207;28;20132;-85
2023/01/28 02:55:34;;;;;;;0.70;0.70;;;3.00;99.90;;;;;;5046120;28;20060;-86
2023/01/28 02:58:19;;;;;;;0.60;0.60;;;1.50;99.90;;;;;;5042133;28;20123;-86
2023/01/28 03:01:04;;;;;;;0.70;0.70;;;1.60;99.90;;;;;;5043040;28;20037;-85
2023/01/28 03:03:55;;;;;;;0.60;0.60;;;1.60;99.90;;;;;;5027356;28;20049;-85
2023/01/28 03:06:33;;;;;;;0.70;0.70;;;1.50;99.90;;;;;;5038320;28;20059;-86
2023/01/28 03:37:07;;;;;;;0.60;0.60;;;1.50;99.90;;;;;;5057439;28;20067;-85
2023/01/28 03:39:33;;;;;;;0.63;0.63;;;1.50;99.90;;;;;;5024443;28;20041;-87
2023/01/28 03:42:08;;;;;;;0.60;0.60;;;1.50;99.90;;;;;;5038862;28;20075;-87
2023/01/28 03:44:52;;;;;;;0.73;0.73;;;3.20;99.90;;;;;;5034032;28;20038;-85
2023/01/28 03:47:26;;;;;;;1.63;1.52;;;2.30;99.90;;;;;;5034530;28;20033;-86
2023/01/28 03:49:54;;;;;;;0.60;0.60;;;1.50;99.90;;;;;;5049316;28;20079;-85
2023/01/28 03:52:29;;;;;;;0.60;0.60;;;1.50;99.90;;;;;;5041829;28;20049;-85
2023/01/28 03:54:55;;;;;;;0.60;0.60;;;1.50;99.90;;;;;;5024887;28;20064;-85
2023/01/28 03:57:25;;;;;;;;;;;2.70;99.90;;;;;;5035527;28;20392;-86
2023/01/28 03:59:51;;;;;;;0.70;0.70;;;1.60;99.90;;;;;;5041671;28;19934;-85
2023/01/28 04:02:19;;;;;;;0.70;0.70;;;1.60;99.90;;;;;;5022664;28;20050;-84
2023/01/28 04:04:45;;;;;;;0.52;0.52;;;1.60;99.90;;;;;;5030181;28;20111;-85
2023/01/28 04:07:15;;;;;;;0.63;0.63;;;1.50;99.90;;;;;;5003385;28;20496;-85
2023/01/28 04:09:42;;;;;;;0.60;0.60;;;2.80;99.90;;;;;;5044057;28;20049;-84
2023/01/28 04:12:08;;;;;;;0.60;0.60;;;2.70;99.90;;;;;;5026796;28;20069;-84
2023/01/28 04:14:35;;;;;;;0.60;0.60;;;3.00;99.90;;;;;;5039055;28;20079;-83
2023/01/28 04:17:01;;;;;;;0.70;0.70;;;1.60;99.90;;;;;;5011359;28;20068;-85
2023/01/28 04:19:27;;;;;;;0.70;0.70;;;2.70;99.90;;;;;;5049471;28;20072;-85
2023/01/28 04:21:53;;;;;;;0.60;0.60;;;2.70;99.90;;;;;;5028099;28;20041;-85
2023/01/28 04:24:20;;;;;;;0.60;0.60;;;1.90;99.90;;;;;;5057250;28;20033;-85
2023/01/28 04:26:45;;;;;;;0.70;0.70;;;2.80;99.90;;;;;;5035759;28;20514;-85
2023/01/28 04:29:11;;;;;;;1.05;1.05;;;2.40;99.90;;;;;;5050549;28;20033;-86
2023/01/28 04:31:37;;;;;;;0.80;0.80;;;3.10;99.90;;;;;;5032372;28;20128;-87
2023/01/28 04:34:02;;;;;;;0.75;0.75;;;2.60;99.90;;;;;;5016305;28;20046;-84
2023/01/28 04:36:28;;;;;;;0.75;0.75;;;2.00;99.90;;;;;;5016978;28;20081;-84
2023/01/28 04:38:54;;;;;;;0.80;0.80;;;2.50;99.90;;;;;;5052539;28;20064;-86
2023/01/28 04:41:19;;;;;;;0.98;0.98;;;2.20;99.90;;;;;;5028735;28;20041;-84
2023/01/28 04:43:45;;;;;;;1.30;1.27;;;2.90;99.90;;;;;;5024145;28;20185;-84
2023/01/28 04:46:11;;;;;;;0.73;0.73;;;1.70;99.90;;;;;;5019947;28;20047;-86
2023/01/28 04:48:37;;;;;;;0.70;0.70;;;1.70;99.90;;;;;;5022149;28;20127;-83
2023/01/28 04:51:03;;;;;;;1.35;1.27;;;2.00;99.90;;;;;;5018894;28;20060;-84
2023/01/28 04:53:29;;;;;;;1.02;1.02;;;1.70;99.90;;;;;;5045129;28;20053;-84
2023/01/28 04:55:56;;;;;;;;;;;1.70;99.90;;;;;;5039524;28;20041;-85
2023/01/28 04:58:21;;;;;;;0.60;0.60;;;1.70;99.90;;;;;;5032807;28;19917;-83
2023/01/28 05:00:57;;;;;;;0.60;0.60;;;2.60;99.90;;;;;;5024072;28;20041;-86
2023/01/28 05:03:23;;;;;;;0.75;0.75;;;1.70;99.90;;;;;;5034059;28;20037;-85
2023/01/28 05:05:49;;;;;;;;;;;2.60;99.90;;;;;;5050599;28;20064;-85
2023/01/28 05:08:15;;;;;;;0.70;0.70;;;1.60;99.90;;;;;;5032310;28;19959;-84
2023/01/28 05:10:41;;;;;;;0.52;0.52;;;2.60;99.90;;;;;;5047650;28;20422;-84
2023/01/28 05:13:07;;;;;;;0.70;0.70;;;3.00;99.90;;;;;;5032217;28;20041;-84
2023/01/28 05:15:32;;;;;;;0.70;0.70;;;2.70;99.90;;;;;;5019555;28;20037;-85
2023/01/28 05:17:58;;;;;;;0.65;0.65;;;1.60;99.90;;;;;;5042128;28;20045;-85
2023/01/28 05:20:24;;;;;;;0.80;0.80;;;1.70;99.90;;;;;;5017688;28;20437;-85
2023/01/28 05:22:50;;;;;;;0.80;0.80;;;1.60;99.90;;;;;;5015827;28;20120;-85
2023/01/28 05:25:16;;;;;;;0.60;0.60;;;1.70;99.90;;;;;;5046421;28;20123;-84
2023/01/28 05:27:41;;;;;;;0.70;0.70;;;1.50;99.90;;;;;;5032111;28;20037;-83
2023/01/28 05:30:08;;;;;;;1.52;1.17;;;1.50;99.90;;;;;;5025056;28;20092;-85
2023/01/28 05:32:34;;;;;;;0.60;0.60;;;1.50;99.90;;;;;;5000983;28;20554;-86
2023/01/28 05:34:59;;;;;;;0.60;0.60;;;2.40;99.90;;;;;;5010023;28;20050;-83
2023/01/28 05:37:25;;;;;;;0.63;0.63;;;2.90;99.90;;;;;;5030988;28;20067;-84
2023/01/28 05:39:51;;;;;;;0.80;0.80;;;1.50;99.90;;;;;;5029652;28;20053;-86
2023/01/28 05:42:19;;;;;;;0.50;0.50;;;1.80;99.90;;;;;;5010383;28;20128;-85
2023/01/28 05:44:45;;;;;;;1.00;1.00;;;1.50;99.90;;;;;;5015354;28;20041;-84
2023/01/28 05:47:11;;;;;;;0.82;0.82;;;1.60;99.90;;;;;;5028815;28;20420;-85
2023/01/28 05:49:36;;;;;;;0.80;0.80;;;1.60;99.90;;;;;;5037535;28;20099;-84
2023/01/28 05:52:02;;;;;;;0.70;0.70;;;3.10;99.90;;;;;;5036835;28;20101;-84
2023/01/28 05:54:29;;;;;;;0.90;0.90;;;1.60;99.90;;;;;;5028635;28;20038;-85
2023/01/28 05:56:54;;;;;;;1.33;1.23;;;2.50;99.90;;;;;;5052186;28;20067;-85
2023/01/28 05:59:20;;;;;;;0.90;0.90;;;1.70;99.90;;;;;;5010318;28;20531;-86
2023/01/28 06:01:46;;;;;;;0.90;0.90;;;2.10;99.90;;;;;;5010822;28;20041;-85
2023/01/28 06:04:12;;;;;;;0.70;0.70;;;1.50;99.90;;;;;;5015901;28;20172;-84
2023/01/28 06:06:37;;;;;;;0.73;0.73;;;1.50;99.90;;;;;;5017374;28;20048;-85
2023/01/28 06:09:03;;;;;;;0.80;0.80;;;2.90;99.90;;;;;;5017578;28;20646;-84
2023/01/28 06:11:29;;;;;;;1.63;1.52;;;1.50;99.90;;;;;;5028608;28;20029;-85
2023/01/28 06:13:54;;;;;;;0.70;0.70;;;2.20;99.90;;;;;;5045823;28;20033;-84
2023/01/28 06:16:20;;;;;;;0.77;0.77;;;2.20;99.90;;;;;;5016868;28;20036;-84
2023/01/28 06:18:46;;;;;;;1.52;1.48;;;2.50;99.90;;;;;;5014799;28;20390;-84
2023/01/28 06:21:11;;;;;;;2.15;1.40;;;3.30;99.90;;;;;;5030987;28;20048;-85
2023/01/28 06:23:37;;;;;;;0.70;0.70;;;1.40;99.90;;;;;;5034143;28;20075;-86
2023/01/28 06:26:03;;;;;;;0.80;0.80;;;2.10;99.90;;;;;;5019813;28;20076;-85
2023/01/28 06:28:28;;;;;;;0.70;0.70;;;1.50;99.90;;;;;;5026490;28;20049;-86
2023/01/28 06:30:54;;;;;;;0.70;0.70;;;1.90;99.90;;;;;;5013992;28;20098;-87
2023/01/28 06:33:21;;;;;;;0.73;0.73;;;2.60;99.90;;;;;;5029249;28;20049;-86
2023/01/28 06:35:47;;;;;;;1.00;1.00;;;1.40;99.90;;;;;;5038349;28;20067;-85
2023/01/28 06:38:12;;;;;;;0.88;0.85;;;1.40;99.90;;;;;;5035116;28;20387;-83
2023/01/28 06:40:38;;;;;;;0.80;0.80;;;1.40;99.90;;;;;;5044428;28;20041;-85
2023/01/28 06:43:05;;;;;;;0.77;0.77;;;1.90;99.90;;;;;;5035261;28;20044;-84
2023/01/28 06:45:31;;;;;;;;;;;1.30;99.90;;;;;;5048854;28;20025;-85
2023/01/28 06:47:56;;;;;;;0.70;0.70;;;2.90;99.90;;;;;;5029799;28;19916;-86
2023/01/28 06:50:22;;;;;;;1.13;1.02;;;1.30;99.90;;;;;;5027078;28;20114;-84
2023/01/28 06:52:48;;;;;;;0.60;0.60;;;2.40;99.90;;;;;;5046979;28;20047;-85
2023/01/28 06:55:14;;;;;;;0.70;0.70;;;1.10;99.90;;;;;;5012620;28;20041;-84
2023/01/28 06:57:40;;;;;;;1.02;1.02;;;1.10;99.90;;;;;;5033009;28;20482;-84
2023/01/28 07:00:09;;;;;;;0.70;0.70;;;1.10;99.90;;;;;;5032858;28;20041;-85
2023/01/28 07:02:36;;;;;;;1.27;1.05;;;1.10;99.90;;;;;;5045570;28;20033;-84
2023/01/28 07:05:03;;;;;;;0.82;0.82;;;1.10;99.90;;;;;;5024637;28;20132;-85
2023/01/28 07:07:28;;;;;;;0.70;0.70;;;2.30;99.90;;;;;;5024634;28;20559;-84
2023/01/28 07:09:54;;;;;;;0.77;0.77;;;1.80;99.90;;;;;;4988629;28;20059;-84
2023/01/28 07:12:20;;;;;;;0.80;0.80;;;2.30;99.90;;;;;;5009661;28;20047;-84
2023/01/28 07:14:45;;;;;;;0.73;0.73;;;1.20;99.90;;;;;;5009022;28;20055;-84
2023/01/28 07:17:11;;;;;;;0.80;0.80;;;1.90;99.90;;;;;;5030105;28;20044;-85
2023/01/28 07:19:37;;;;;;;0.90;0.90;;;2.20;99.90;;;;;;5032211;28;21763;-85
2023/01/28 07:22:02;;;;;;;0.82;0.82;;;1.80;99.90;;;;;;5029318;28;20380;-86
2023/01/28 07:24:29;;;;;;;0.85;0.85;;;1.10;99.90;;;;;;5032432;28;20033;-85
2023/01/28 07:26:55;;;;;;;0.70;0.70;;;0.90;99.90;;;;;;5026592;28;20047;-85
2023/01/28 07:29:21;;;;;;;3.33;1.23;;;0.90;99.90;;;;;;5029348;28;20036;-84
2023/01/28 07:31:47;;;;;;;0.77;0.77;;;0.70;99.90;;;;;;5043946;28;20037;-84
2023/01/28 07:34:13;;;;;;;0.80;0.80;;;1.10;99.90;;;;;;5041947;28;20050;-87
2023/01/28 07:36:38;;;;;;;0.70;0.70;;;0.50;99.90;;;;;;5015263;28;20056;-86
2023/01/28 07:39:06;;;;;;;0.80;0.80;;;1.80;99.90;;;;;;5050543;28;20041;-83
2023/01/28 07:41:32;;;;;;;6.47;3.90;;;0.40;99.90;;;;;;5024535;28;20044;-83
2023/01/28 07:43:58;;;;;;;1.33;1.23;;;0.40;99.90;;;;;;5045609;28;20044;-83
2023/01/28 07:46:23;;;;;;;0.90;0.90;;;0.40;99.90;;;;;;5044772;28;20045;-84
2023/01/28 07:48:49;;;;;;;1.55;1.45;;;0.30;99.90;;;;;;5013646;28;20080;-83
2023/01/28 07:51:16;;;;;;;0.80;0.80;;;0.30;99.90;;;;;;5032851;28;20040;-84
2023/01/28 07:53:42;;;;;;;0.80;0.80;;;1.30;99.90;;;;;;5041682;28;20053;-84
2023/01/28 07:56:07;;;;;;;0.70;0.70;;;0.30;99.90;;;;;;5044464;28;20044;-85
2023/01/28 07:58:33;;;;;;;2.00;1.90;;;0.30;99.90;;;;;;5016178;28;20091;-86
2023/01/28 08:01:00;;;;;;;1.58;1.48;;;0.40;99.90;;;;;;5049279;28;20057;-85
2023/01/28 08:03:26;;;;;;;0.70;0.70;;;0.40;99.90;;;;;;5052317;28;20406;-86
2023/01/28 08:05:54;;;;;;;1.13;1.13;;;0.40;99.90;;;;;;5030349;28;20052;-87
2023/01/28 08:08:21;;;;;;;1.00;1.00;;;1.70;99.90;;;;;;5030150;28;20485;-89
2023/01/28 08:10:47;;;;;;;0.70;0.70;;;0.40;99.90;;;;;;5054698;28;20057;-86
2023/01/28 08:13:14;;;;;;;0.90;0.90;;;0.40;99.90;;;;;;5021831;28;20124;-87
2023/01/28 08:15:40;;;;;;;0.80;0.80;;;0.40;99.90;;;;;;5024506;28;20517;-85
2023/01/28 08:18:08;;;;;;;0.77;0.77;;;1.30;99.90;;;;;;5030851;28;20037;-87
2023/01/28 08:20:33;;;;;;;0.70;0.70;;;0.60;99.90;;;;;;5036508;28;20034;-88
2023/01/28 08:23:19;;;;;;;1.08;1.08;;;1.90;99.90;;;;;;5029894;28;20043;-86
2023/01/28 08:25:46;;;;;;;1.48;1.38;;;1.00;99.90;;;;;;5035124;28;20051;-86
2023/01/28 08:28:12;;;;;;;0.75;0.75;;;1.70;99.90;;;;;;5040856;28;20041;-85
2023/01/28 08:30:40;;;;;;;0.80;0.80;;;1.30;99.90;;;;;;5040951;28;20091;-86
2023/01/28 08:33:09;;;;;;;1.00;1.00;;;2.00;99.90;;;;;;5035326;28;20120;-86
2023/01/28 08:35:36;;;;;;;0.70;0.70;;;2.20;99.90;;;;;;5035747;28;20566;-85
2023/01/28 08:38:03;;;;;;;0.60;0.60;;;1.40;99.90;;;;;;5054439;28;20112;-84
2023/01/28 08:40:29;;;;;;;0.70;0.70;;;1.90;99.90;;;;;;5021187;28;20036;-85
2023/01/28 08:42:55;;;;;;;1.90;1.80;;;2.60;99.90;;;;;;5028849;28;20045;-85
2023/01/28 08:45:23;;;;;;;;;;;1.40;99.90;;;;;;5048666;28;21608;-85
2023/01/28 08:47:59;;;;;;;0.70;0.70;;;2.30;99.90;;;;;;5048451;28;21059;-84
2023/01/28 08:50:28;;;;;;;0.70;0.70;;;2.40;99.90;;;;;;5043356;28;20045;-84
2023/01/28 08:53:06;;;;;;;0.70;0.70;;;2.10;99.90;;;;;;5030477;28;20169;-85
2023/01/28 08:55:33;;;;;;;0.70;0.70;;;1.20;99.90;;;;;;5028599;28;20038;-85
2023/01/28 08:58:04;;;;;;;0.93;0.93;;;2.20;99.90;;;;;;5048388;28;20040;-85
2023/01/28 09:00:30;;;;;;;0.70;0.70;;;2.20;99.90;;;;;;5025077;28;20495;-85
2023/01/28 09:02:56;;;;;;;1.08;1.08;;;1.10;99.90;;;;;;5044890;28;20056;-85
2023/01/28 09:05:22;;;;;;;0.70;0.70;;;1.20;99.90;;;;;;5033570;28;20711;-84
2023/01/28 09:07:49;;;;;;;0.70;0.70;;;1.20;99.90;;;;;;5028814;28;20395;-84
2023/01/28 09:10:15;;;;;;;3.28;1.98;;;1.20;99.90;;;;;;5044943;28;20048;-82
2023/01/28 09:12:42;;;;;;;;;;;1.30;99.90;;;;;;5049333;28;20050;-86
2023/01/28 09:15:08;;;;;;;1.25;1.15;;;1.30;99.90;;;;;;5051016;28;19997;-87
2023/01/28 09:17:34;;;;;;;0.65;0.65;;;1.40;99.90;;;;;;5048663;28;20109;-84
2023/01/28 09:20:00;;;;;;;0.80;0.80;;;2.10;99.90;;;;;;5019785;28;20550;-85
2023/01/28 09:22:25;;;;;;;1.15;1.15;;;2.70;99.90;;;;;;5029107;28;20052;-84
2023/01/28 09:24:51;;;;;;;0.70;0.70;;;1.70;99.90;;;;;;5047456;28;20127;-84
2023/01/28 09:27:17;;;;;;;0.70;0.70;;;1.90;99.90;;;;;;5013814;28;20057;-84
2023/01/28 09:29:43;;;;;;;0.63;0.63;;;2.10;99.90;;;;;;5014002;28;20052;-83
2023/01/28 09:32:08;;;;;;;0.95;0.95;;;2.20;99.90;;;;;;5033017;28;20051;-84
2023/01/28 09:34:34;;;;;;;1.00;1.00;;;3.50;99.90;;;;;;5010341;28;20064;-84
2023/01/28 09:37:00;;;;;;;1.13;1.13;;;2.40;99.90;;;;;;5031657;28;20045;-84
2023/01/28 09:39:27;;;;;;;;;;;2.50;99.90;;;;;;5047606;28;20052;-84
2023/01/28 09:42:05;;;;;;;0.90;0.90;;;2.90;99.90;;;;;;5028367;28;19921;-83
2023/01/28 09:44:39;;;;;;;0.70;0.70;;;2.60;99.90;;;;;;5031957;28;20094;-84
2023/01/28 09:47:16;;;;;;;0.60;0.60;;;2.60;99.90;;;;;;5026776;28;20651;-84
2023/01/28 09:49:47;;;;;;;1.00;1.00;;;2.60;99.90;;;;;;5049069;28;20060;-83
2023/01/28 09:52:16;;;;;;;0.70;0.70;;;2.70;99.90;;;;;;5047630;28;20051;-83
2023/01/28 09:54:53;;;;;;;0.75;0.75;;;2.70;99.90;;;;;;5049520;28;20044;-83
2023/01/28 09:57:25;;;;;;;0.70;0.70;;;2.70;99.90;;;;;;5048605;28;20356;-84
2023/01/28 09:59:51;;;;;;;0.60;0.60;;;4.20;99.90;;;;;;5046939;28;20049;-83
2023/01/28 10:02:30;;;;;;;;;;;3.90;99.90;;;;;;5047735;28;20123;-83
2023/01/28 10:05:18;;;;;;;0.70;0.70;;;3.00;99.90;;;;;;5026097;28;19921;-83
2023/01/28 10:07:43;;;;;;;;;;;3.20;99.90;;;;;;5043708;28;20045;-83
2023/01/28 10:10:16;;;;;;;0.70;0.70;;;3.30;99.90;;;;;;5041975;28;19924;-83
2023/01/28 10:12:51;;;;;;;0.90;0.90;;;3.40;99.90;;;;;;5044841;28;20376;-83
2023/01/28 10:15:42;;;;;;;2.28;0.80;;;3.50;99.90;;;;;;5038842;28;20037;-84
2023/01/28 10:18:10;;;;;;;1.48;0.77;;;3.50;99.90;;;;;;5048293;28;20385;-83
2023/01/28 10:20:50;;;;;;;0.65;0.65;;;3.50;99.90;;;;;;5030313;28;20037;-84
2023/01/28 10:23:57;;;;;;;0.70;0.70;;;3.60;99.90;;;;;;5050061;28;20049;-83
2023/01/28 10:26:29;;;;;;;0.70;0.70;;;3.70;99.90;;;;;;5004746;28;20057;-83
2023/01/28 10:29:03;;;;;;;0.50;0.50;;;3.90;99.90;;;;;;5060339;28;20134;-84
2023/01/28 10:31:38;;;;;;;0.60;0.60;;;4.10;99.90;;;;;;5031563;28;20068;-84
2023/01/28 10:34:04;;;;;;;0.65;0.65;;;4.30;99.90;;;;;;5045829;28;20057;-83
2023/01/28 10:36:30;;;;;;;0.70;0.70;;;4.10;99.90;;;;;;5050178;28;20056;-83
2023/01/28 10:38:56;;;;;;;0.60;0.60;;;4.20;99.90;;;;;;5032780;28;20048;-83
2023/01/28 10:41:22;;;;;;;0.50;0.50;;;4.10;99.90;;;;;;5049116;28;20126;-83
2023/01/28 10:43:49;;;;;;;0.57;0.57;;;4.90;99.90;;;;;;5033000;28;20115;-82
2023/01/28 10:46:27;;;;;;;0.60;0.60;;;4.20;99.90;;;;;;5033536;28;20681;-83
2023/01/28 10:49:24;;;;;;;0.60;0.60;;;4.30;99.90;;;;;;5044422;28;20180;-83
2023/01/28 10:51:49;;;;;;;0.60;0.60;;;4.30;99.90;;;;;;5042108;28;20495;-84
2023/01/28 10:54:24;;;;;;;0.60;0.60;;;4.30;99.90;;;;;;5039587;28;20045;-83
2023/01/28 10:56:54;;;;;;;0.95;0.95;;;4.40;99.90;;;;;;5041871;28;20186;-84
2023/01/28 10:59:24;;;;;;;3.83;1.67;;;4.40;99.90;;;;;;5029870;28;20078;-84
2023/01/28 11:02:02;;;;;;;0.75;0.75;;;4.50;99.90;;;;;;5032584;28;20040;-83
2023/01/28 11:04:30;;;;;;;0.70;0.70;;;4.50;99.90;;;;;;5047244;28;20029;-84
2023/01/28 11:07:02;;;;;;;0.70;0.70;;;4.80;99.90;;;;;;5051269;28;20376;-83
2023/01/28 11:09:36;;;;;;;1.10;1.10;;;4.40;99.90;;;;;;5037456;28;20059;-83
2023/01/28 11:12:21;;;;;;;1.15;1.15;;;4.50;99.90;;;;;;5024198;28;20041;-83
2023/01/28 11:14:52;;;;;;;0.63;0.63;;;4.50;99.90;;;;;;5030659;28;20468;-84
2023/01/28 11:17:20;;;;;;;0.50;0.50;;;4.50;99.90;;;;;;5040461;28;20029;-83
2023/01/28 11:19:46;;;;;;;0.95;0.95;;;4.50;99.90;;;;;;5024476;28;20534;-83
2023/01/28 11:22:23;;;;;;;1.48;1.40;;;5.40;99.90;;;;;;5029861;28;20120;-83
2023/01/28 11:24:49;;;;;;;0.60;0.60;;;4.70;99.90;;;;;;5045755;28;20036;-84
2023/01/28 11:27:17;;;;;;;0.60;0.60;;;4.60;99.90;;;;;;5056045;28;20056;-83
2023/01/28 11:29:43;;;;;;;0.60;0.60;;;4.60;99.90;;;;;;5020991;28;20037;-85
2023/01/28 11:32:17;;;;;;;0.80;0.80;;;4.70;99.90;;;;;;5014806;28;20102;-83
2023/01/28 11:34:59;;;;;;;1.30;1.20;;;4.70;99.90;;;;;;5051182;28;20053;-86
2023/01/28 11:37:27;;;;;;;0.60;0.60;;;4.60;99.90;;;;;;5033207;28;20040;-86
2023/01/28 11:40:15;;;;;;;0.55;0.55;;;4.70;99.90;;;;;;5032409;28;20447;-87
2023/01/28 11:42:41;;;;;;;0.80;0.80;;;4.70;99.90;;;;;;5030300;28;20060;-83
2023/01/28 11:45:16;;;;;;;0.93;0.93;;;4.60;99.90;;;;;;5003969;28;20049;-85
2023/01/28 11:48:24;;;;;;;0.60;0.60;;;4.70;99.90;;;;;;5032392;28;20049;-82
2023/01/28 11:51:03;;;;;;;1.55;1.02;;;4.70;99.90;;;;;;5030635;28;20099;-83
2023/01/28 11:54:04;;;;;;;0.55;0.55;;;4.60;99.90;;;;;;5043825;28;20137;-82
2023/01/28 11:56:46;;;;;;;0.60;0.60;;;4.50;99.90;;;;;;5049428;28;20133;-83
2023/01/28 12:00:02;;;;;;;0.60;0.60;;;4.60;99.90;;;;;;5045643;28;20514;-82
2023/01/28 12:03:08;;;;;;;1.60;1.50;;;4.60;99.90;;;;;;5034986;28;20144;-82
2023/01/28 12:05:52;;;;;;;0.95;0.95;;;4.60;99.90;;;;;;5046175;28;20128;-83
2023/01/28 12:08:37;;;;;;;0.60;0.60;;;4.60;99.90;;;;;;5033784;28;20041;-83
2023/01/28 12:14:42;;;;;;;1.02;0.93;;;4.30;99.90;;;;;;5043612;28;20487;-83
2023/01/28 12:17:17;;;;;;;0.50;0.50;;;4.30;99.90;;;;;;5052003;28;20033;-82
2023/01/28 12:19:54;;;;;;;0.80;0.80;;;4.30;99.90;;;;;;5047595;28;20056;-83
2023/01/28 12:22:29;;;;;;;;;;;4.40;99.90;;;;;;5051069;28;20083;-83
2023/01/28 12:25:01;;;;;;;0.50;0.50;;;4.40;99.90;;;;;;5043028;28;20023;-82
2023/01/28 12:27:53;;;;;;;0.60;0.60;;;4.40;99.90;;;;;;5043766;28;20064;-83
2023/01/28 12:30:48;;;;;;;0.73;0.73;;;4.40;99.90;;;;;;5030772;28;20049;-83
2023/01/28 12:33:14;;;;;;;1.00;1.00;;;4.60;99.90;;;;;;5031063;28;20411;-82
2023/01/28 12:36:06;;;;;;;0.75;0.75;;;4.30;99.90;;;;;;5040977;28;20049;-82
2023/01/28 12:38:53;;;;;;;0.65;0.65;;;4.40;99.90;;;;;;5032330;28;20040;-83
2023/01/28 12:41:28;;;;;;;0.52;0.52;;;4.40;99.90;;;;;;5044856;28;20086;-82
2023/01/28 12:44:05;;;;;;;0.50;0.50;;;4.50;99.90;;;;;;5030085;28;20049;-83
2023/01/28 12:46:40;;;;;;;0.60;0.60;;;4.40;99.90;;;;;;5039394;28;20049;-82
2023/01/28 12:49:38;;;;;;;0.93;0.90;;;4.50;99.90;;;;;;5031081;28;20520;-82
2023/01/28 12:52:15;;;;;;;0.45;0.45;;;4.50;99.90;;;;;;5001996;28;20049;-83
2023/01/28 12:54:49;;;;;;;0.70;0.70;;;4.50;99.90;;;;;;5041424;28;20472;-82
2023/01/28 12:57:25;;;;;;;1.23;1.23;;;4.60;99.90;;;;;;5039716;28;20402;-83
2023/01/28 13:00:02;;;;;;;0.70;0.70;;;4.60;99.90;;;;;;5041096;28;20486;-83
2023/01/28 13:02:40;;;;;;;0.40;0.40;;;4.60;99.90;;;;;;5022817;28;20037;-83
2023/01/28 13:05:19;;;;;;;0.60;0.60;;;4.80;99.90;;;;;;5009886;28;20049;-83
2023/01/28 13:08:16;;;;;;;0.55;0.55;;;5.20;99.90;;;;;;5045179;28;20166;-83
2023/01/28 13:10:44;;;;;;;0.80;0.80;;;5.20;99.90;;;;;;5025562;28;20059;-83
2023/01/28 13:13:35;;;;;;;0.80;0.80;;;5.30;99.90;;;;;;5048019;28;20092;-83
2023/01/28 13:16:02;;;;;;;0.52;0.52;;;5.30;99.90;;;;;;5031337;28;20613;-83
2023/01/28 13:18:44;;;;;;;0.60;0.60;;;5.40;99.90;;;;;;5027468;28;20045;-83
2023/01/28 13:21:31;;;;;;;0.70;0.70;;;5.50;99.90;;;;;;5045572;28;20120;-82
2023/01/28 13:24:08;;;;;;;0.65;0.65;;;5.50;99.90;;;;;;5043005;28;20053;-83
2023/01/28 13:26:46;;;;;;;0.50;0.50;;;5.50;99.90;;;;;;5036923;28;20049;-83
2023/01/28 13:29:24;;;;;;;0.60;0.60;;;5.50;99.90;;;;;;5029887;28;20040;-83
2023/01/28 13:32:02;;;;;;;0.50;0.50;;;5.40;99.90;;;;;;5045368;28;20048;-83
2023/01/28 13:34:42;;;;;;;1.02;1.02;;;5.30;99.90;;;;;;5042436;28;20175;-82
2023/01/28 13:37:35;;;;;;;0.77;0.77;;;5.30;99.90;;;;;;5044830;28;21476;-83
2023/01/28 13:40:08;;;;;;;1.02;1.02;;;5.20;99.90;;;;;;5044062;28;20037;-82
2023/01/28 13:42:34;;;;;;;0.52;0.52;;;5.20;99.90;;;;;;5042565;28;20040;-82
2023/01/28 13:45:15;;;;;;;0.75;0.75;;;5.30;99.90;;;;;;5040747;28;20045;-83
2023/01/28 13:47:45;;;;;;;2.15;2.05;;;5.20;99.90;;;;;;5029165;28;20084;-82
2023/01/28 13:50:18;;;;;;;0.70;0.70;;;5.20;99.90;;;;;;5028672;28;20032;-83
2023/01/28 13:52:54;;;;;;;0.73;0.73;;;5.10;99.90;;;;;;5038092;28;20073;-83
2023/01/28 13:55:26;;;;;;;0.70;0.70;;;5.10;99.90;;;;;;5036552;28;20036;-81
2023/01/28 13:58:21;;;;;;;0.77;0.77;;;5.10;99.90;;;;;;5039831;28;20051;-82